Lake Elizabeth, California
Current Conditions -  °F | °C
As of 5:48 AM on Wednesday 26 Nov 2014 (Local Time) from KSDB Reporting Station
Clear Clear  
Wind Chill: 61°   Ceiling: Unl
Heat Index: 61°   Visibility: 10mi
Dew Point:   Wind: 13mph
Humidity: 12%   Direction: 70°ENE
Pressure: 30.4"   Gusts: NA
Location:  34.6849°N, 118.558°W
Report Text: KSDB 261348Z AUTO 07011KT 10SM CLR 16/M14 A3040 RMK AO2 SLP256 T01611139
Loading
Personal Weather Stations






























Interactive Weather Map New forecast layout! Learn more

10-Day Weather Forecast

Advertisements
Track Severe Weather on mobile